Cezarina, Brazil
Current Conditions -  °F | °C
As of 9:00 AM on Monday 22 Dec 2014 (Local Time) from SBGO Reporting Station
Overcast Overcast  
Wind Chill: 73°   Ceiling: 9000
Heat Index: 73°   Visibility: 6mi
Dew Point: 66°   Wind: 6mph
Humidity: 78%   Direction: 340°NNW
Pressure: 30.06"   Gusts: NA
Location:  16.97°S, 49.78°W
Report Text: SBGO 221100Z 34005KT 9999 FEW020 OVC090 23/19 Q1018
Loading
Personal Weather Stations






























Interactive Weather Map New forecast layout! Learn more

10-Day Weather Forecast

Advertisements
Track Severe Weather on mobile